createdAt,value
2023-04-30T00:00:33.251Z,5.80
2023-04-30T00:01:33.272Z,5.80
2023-04-30T00:02:33.409Z,5.89
2023-04-30T00:03:33.359Z,5.86
2023-04-30T00:04:33.227Z,5.87
2023-04-30T00:05:33.233Z,5.94
2023-04-30T00:06:33.282Z,6.07
2023-04-30T00:07:33.251Z,6.28
2023-04-30T00:08:33.210Z,6.22
2023-04-30T00:09:33.214Z,6.22
2023-04-30T00:10:33.212Z,6.24
2023-04-30T00:11:33.199Z,6.08
2023-04-30T00:12:33.205Z,5.98
2023-04-30T00:13:33.200Z,5.90
2023-04-30T00:14:33.172Z,6.01
2023-04-30T00:15:33.187Z,5.93
2023-04-30T00:16:33.176Z,5.83
2023-04-30T00:17:33.203Z,5.73
2023-04-30T00:18:33.170Z,5.68
2023-04-30T00:19:33.176Z,5.59
2023-04-30T00:20:33.127Z,5.62
2023-04-30T00:21:33.136Z,5.64
2023-04-30T00:22:33.162Z,5.54
2023-04-30T00:23:33.151Z,5.47
2023-04-30T00:24:33.132Z,5.53
2023-04-30T00:25:33.231Z,5.46
2023-04-30T00:26:33.115Z,5.44
2023-04-30T00:27:33.118Z,5.62
2023-04-30T00:28:33.105Z,5.71
2023-04-30T00:29:33.145Z,5.73
2023-04-30T00:30:33.083Z,5.90
2023-04-30T00:31:33.149Z,5.94
2023-04-30T00:32:33.147Z,5.89
2023-04-30T00:33:33.094Z,5.90
2023-04-30T00:34:33.081Z,5.87
2023-04-30T00:35:33.080Z,5.80
2023-04-30T00:36:33.082Z,5.68
2023-04-30T00:37:33.057Z,5.82
2023-04-30T00:38:33.059Z,5.61
2023-04-30T00:39:33.072Z,5.54
2023-04-30T00:40:33.063Z,5.44
2023-04-30T00:41:33.062Z,5.46
2023-04-30T00:42:33.028Z,5.47
2023-04-30T00:43:33.055Z,5.33
2023-04-30T00:44:32.998Z,5.28
2023-04-30T00:45:33.050Z,5.38
2023-04-30T00:46:33.064Z,5.28
2023-04-30T00:47:33.043Z,5.26
2023-04-30T00:48:32.990Z,5.21
2023-04-30T00:49:33.014Z,5.28
2023-04-30T00:50:32.966Z,5.15
2023-04-30T00:51:33.029Z,5.14
2023-04-30T00:52:32.976Z,5.10
2023-04-30T00:53:32.989Z,5.11
2023-04-30T00:54:32.977Z,5.11
2023-04-30T00:55:32.969Z,5.12
2023-04-30T00:56:32.949Z,5.18
2023-04-30T00:57:32.956Z,5.18
2023-04-30T00:58:32.943Z,5.29
2023-04-30T00:59:32.960Z,5.20
2023-04-30T01:00:32.926Z,5.28
2023-04-30T01:01:32.959Z,5.38
2023-04-30T01:02:32.937Z,5.46
2023-04-30T01:03:32.985Z,5.54
2023-04-30T01:04:32.904Z,5.53
2023-04-30T01:05:32.903Z,5.41
2023-04-30T01:06:32.934Z,5.43
2023-04-30T01:07:32.966Z,5.25
2023-04-30T01:08:32.881Z,5.26
2023-04-30T01:09:32.879Z,5.26
2023-04-30T01:10:32.859Z,5.07
2023-04-30T01:11:32.865Z,4.92
2023-04-30T01:12:32.845Z,4.99
2023-04-30T01:13:32.914Z,4.97
2023-04-30T01:14:32.852Z,4.90
2023-04-30T01:15:32.856Z,4.82
2023-04-30T01:16:32.891Z,4.86
2023-04-30T01:17:32.837Z,4.86
2023-04-30T01:18:32.961Z,4.80
2023-04-30T01:19:32.855Z,4.77
2023-04-30T01:20:32.804Z,4.86
2023-04-30T01:21:32.819Z,4.97
2023-04-30T01:22:32.821Z,4.94
2023-04-30T01:23:32.801Z,4.92
2023-04-30T01:24:32.847Z,4.93
2023-04-30T01:25:32.792Z,4.92
2023-04-30T01:26:32.775Z,4.94
2023-04-30T01:27:32.807Z,4.90
2023-04-30T01:28:32.782Z,4.89
2023-04-30T01:29:32.805Z,4.99
2023-04-30T01:30:32.762Z,5.04
2023-04-30T01:31:32.834Z,5.10
2023-04-30T01:32:32.772Z,5.04
2023-04-30T01:33:32.758Z,4.96
2023-04-30T01:34:32.742Z,4.90
2023-04-30T01:35:32.775Z,4.78
2023-04-30T01:36:32.728Z,4.70
2023-04-30T01:37:32.746Z,4.70
2023-04-30T01:38:32.711Z,4.78
2023-04-30T01:39:32.759Z,4.66
2023-04-30T01:40:32.694Z,4.70
2023-04-30T01:41:32.741Z,4.67
2023-04-30T01:42:32.718Z,4.53
2023-04-30T01:43:32.753Z,4.68
2023-04-30T01:44:32.680Z,4.62
2023-04-30T01:45:32.687Z,4.56
2023-04-30T01:46:32.740Z,4.56
2023-04-30T01:47:32.750Z,4.53
2023-04-30T01:48:32.658Z,4.55
2023-04-30T01:49:32.683Z,4.50
2023-04-30T01:50:32.682Z,4.63
2023-04-30T01:51:32.660Z,4.58
2023-04-30T01:52:32.646Z,4.58
2023-04-30T01:53:32.649Z,4.58
2023-04-30T01:54:32.617Z,4.58
2023-04-30T01:55:32.641Z,4.67
2023-04-30T01:56:32.656Z,4.62
2023-04-30T01:57:32.612Z,4.55
2023-04-30T01:58:32.636Z,4.59
2023-04-30T01:59:32.622Z,4.50
2023-04-30T02:00:32.598Z,4.58
2023-04-30T02:01:32.636Z,4.59
2023-04-30T02:02:32.647Z,4.56
2023-04-30T02:03:32.658Z,4.50
2023-04-30T02:04:32.583Z,4.48
2023-04-30T02:05:32.591Z,4.42
2023-04-30T02:06:32.585Z,4.42
2023-04-30T02:07:32.577Z,4.44
2023-04-30T02:08:32.557Z,4.48
2023-04-30T02:09:32.557Z,4.44
2023-04-30T02:10:32.540Z,4.32
2023-04-30T02:11:32.553Z,4.37
2023-04-30T02:12:32.567Z,4.48
2023-04-30T02:13:32.563Z,4.38
2023-04-30T02:14:32.521Z,4.53
2023-04-30T02:15:32.516Z,4.40
2023-04-30T02:16:32.544Z,4.42
2023-04-30T02:17:32.557Z,4.41
2023-04-30T02:18:32.522Z,4.38
2023-04-30T02:19:32.594Z,4.41
2023-04-30T02:20:32.487Z,4.37
2023-04-30T02:21:32.481Z,4.32
2023-04-30T02:22:32.492Z,4.30
2023-04-30T02:23:32.476Z,4.26
2023-04-30T02:24:32.478Z,4.24
2023-04-30T02:25:32.498Z,4.23
2023-04-30T02:26:32.465Z,4.31
2023-04-30T02:27:32.457Z,4.38
2023-04-30T02:28:32.453Z,4.28
2023-04-30T02:29:32.445Z,4.20
2023-04-30T02:30:32.467Z,4.23
2023-04-30T02:31:32.459Z,4.23
2023-04-30T02:32:32.479Z,4.32
2023-04-30T02:33:32.443Z,4.28
2023-04-30T02:34:32.394Z,4.14
2023-04-30T02:35:32.419Z,4.23
2023-04-30T02:36:32.408Z,4.23
2023-04-30T02:37:32.393Z,4.14
2023-04-30T02:38:32.390Z,4.08
2023-04-30T02:39:32.395Z,4.05
2023-04-30T02:40:32.383Z,4.02
2023-04-30T02:41:32.427Z,3.86
2023-04-30T02:42:32.363Z,3.96
2023-04-30T02:43:32.366Z,4.04
2023-04-30T02:44:32.353Z,3.98
2023-04-30T02:45:32.396Z,3.98
2023-04-30T02:46:32.357Z,4.01
2023-04-30T02:47:32.387Z,3.99
2023-04-30T02:48:32.328Z,3.98
2023-04-30T02:49:32.330Z,3.92
2023-04-30T02:50:32.314Z,3.76
2023-04-30T02:51:32.341Z,3.76
2023-04-30T02:52:32.282Z,3.80
2023-04-30T02:53:32.319Z,3.60
2023-04-30T02:54:32.287Z,3.70
2023-04-30T02:55:32.295Z,3.65
2023-04-30T02:56:32.310Z,3.63
2023-04-30T02:57:32.318Z,3.68
2023-04-30T02:58:32.254Z,3.63
2023-04-30T02:59:32.276Z,3.59
2023-04-30T03:00:32.265Z,3.56
2023-04-30T03:01:32.320Z,3.53
2023-04-30T03:02:32.341Z,3.51
2023-04-30T03:03:32.259Z,3.51
2023-04-30T03:04:32.231Z,3.42
2023-04-30T03:05:32.257Z,3.21
2023-04-30T03:06:32.245Z,3.29
2023-04-30T03:07:32.253Z,3.36
2023-04-30T03:08:32.215Z,3.22
2023-04-30T03:09:32.220Z,3.32
2023-04-30T03:10:32.236Z,3.29
2023-04-30T03:11:32.240Z,3.16
2023-04-30T03:12:32.187Z,3.19
2023-04-30T03:13:32.193Z,3.26
2023-04-30T03:14:32.237Z,3.14
2023-04-30T03:15:32.197Z,3.22
2023-04-30T03:16:32.188Z,3.18
2023-04-30T03:17:32.198Z,3.13
2023-04-30T03:18:32.163Z,3.10
2023-04-30T03:19:32.168Z,3.08
2023-04-30T03:20:32.164Z,3.13
2023-04-30T03:21:32.144Z,3.11
2023-04-30T03:22:32.134Z,3.14
2023-04-30T03:23:32.159Z,3.08
2023-04-30T03:24:32.143Z,3.03
2023-04-30T03:25:32.132Z,3.08
2023-04-30T03:26:32.125Z,3.13
2023-04-30T03:27:32.142Z,3.22
2023-04-30T03:28:32.148Z,3.23
2023-04-30T03:29:32.092Z,3.08
2023-04-30T03:30:32.107Z,3.10
2023-04-30T03:31:32.150Z,3.03
2023-04-30T03:32:32.111Z,3.10
2023-04-30T03:33:32.102Z,3.00
2023-04-30T03:34:32.097Z,3.01
2023-04-30T03:35:32.073Z,2.89
2023-04-30T03:36:32.069Z,2.90
2023-04-30T03:37:32.054Z,2.95
2023-04-30T03:38:32.033Z,2.87
2023-04-30T03:39:32.056Z,2.90
2023-04-30T03:40:32.023Z,3.14
2023-04-30T03:41:32.054Z,2.98
2023-04-30T03:42:32.016Z,3.10
2023-04-30T03:43:32.028Z,3.10
2023-04-30T03:44:31.999Z,3.14
2023-04-30T03:45:32.020Z,3.10
2023-04-30T03:46:32.018Z,3.14
2023-04-30T03:47:32.030Z,3.14
2023-04-30T03:48:32.005Z,3.16
2023-04-30T03:49:31.969Z,3.16
2023-04-30T03:50:31.959Z,3.18
2023-04-30T03:51:31.984Z,3.25
2023-04-30T03:52:31.941Z,3.28
2023-04-30T03:53:31.977Z,3.25
2023-04-30T03:54:31.935Z,3.37
2023-04-30T03:55:31.941Z,3.36
2023-04-30T03:56:31.957Z,3.31
2023-04-30T03:57:31.929Z,3.37
2023-04-30T03:58:31.919Z,3.36
2023-04-30T03:59:31.923Z,3.28
2023-04-30T04:00:31.919Z,3.22
2023-04-30T04:01:31.983Z,3.31
2023-04-30T04:02:31.981Z,3.41
2023-04-30T04:03:31.915Z,3.36
2023-04-30T04:04:31.952Z,3.36
2023-04-30T04:05:32.913Z,3.42
2023-04-30T04:06:31.985Z,3.42
2023-04-30T04:07:31.927Z,3.44
2023-04-30T04:08:31.853Z,3.42
2023-04-30T04:09:31.868Z,3.44
2023-04-30T04:10:31.850Z,3.34
2023-04-30T04:11:31.867Z,3.45
2023-04-30T04:12:31.844Z,3.36
2023-04-30T04:13:31.877Z,3.45
2023-04-30T04:14:31.868Z,3.32
2023-04-30T04:15:31.831Z,3.37
2023-04-30T04:16:31.848Z,3.42
2023-04-30T04:17:31.863Z,3.50
2023-04-30T04:18:31.817Z,3.45
2023-04-30T04:19:31.890Z,3.42
2023-04-30T04:20:31.805Z,3.58
2023-04-30T04:21:31.797Z,3.60
2023-04-30T04:22:31.781Z,3.58
2023-04-30T04:23:31.802Z,3.59
2023-04-30T04:24:31.760Z,3.69
2023-04-30T04:25:31.809Z,3.62
2023-04-30T04:26:31.745Z,3.56
2023-04-30T04:27:31.780Z,3.65
2023-04-30T04:28:31.755Z,3.65
2023-04-30T04:29:31.776Z,3.70
2023-04-30T04:30:31.737Z,3.74
2023-04-30T04:31:31.790Z,3.69
2023-04-30T04:32:31.754Z,3.63
2023-04-30T04:33:31.723Z,3.55
2023-04-30T04:34:31.694Z,3.65
2023-04-30T04:35:31.723Z,3.59
2023-04-30T04:36:31.688Z,3.58
2023-04-30T04:37:31.693Z,3.70
2023-04-30T04:38:31.664Z,3.77
2023-04-30T04:39:31.702Z,3.78
2023-04-30T04:40:31.878Z,3.66
2023-04-30T04:41:31.691Z,3.65
2023-04-30T04:42:31.704Z,3.77
2023-04-30T04:43:31.668Z,3.80
2023-04-30T04:44:31.633Z,3.91
2023-04-30T04:45:31.639Z,3.83
2023-04-30T04:46:31.708Z,3.92
2023-04-30T04:47:31.673Z,3.84
2023-04-30T04:48:31.625Z,3.78
2023-04-30T04:49:31.640Z,3.88
2023-04-30T04:50:31.587Z,3.86
2023-04-30T04:51:31.631Z,3.95
2023-04-30T04:52:31.581Z,4.08
2023-04-30T04:53:32.949Z,4.01
2023-04-30T04:54:31.606Z,3.84
2023-04-30T04:55:31.598Z,3.95
2023-04-30T04:56:31.588Z,4.08
2023-04-30T04:57:31.569Z,3.81
2023-04-30T04:58:31.568Z,4.13
2023-04-30T04:59:31.576Z,4.17
2023-04-30T05:00:31.547Z,4.04
2023-04-30T05:01:31.635Z,4.14
2023-04-30T05:02:31.620Z,4.12
2023-04-30T05:03:31.661Z,4.10
2023-04-30T05:04:31.520Z,4.31
2023-04-30T05:05:31.550Z,4.30
2023-04-30T05:06:31.532Z,4.12
2023-04-30T05:07:31.510Z,4.12
2023-04-30T05:08:31.493Z,4.17
2023-04-30T05:09:31.519Z,4.12
2023-04-30T05:10:31.507Z,4.10
2023-04-30T05:11:31.497Z,4.20
2023-04-30T05:12:31.461Z,4.08
2023-04-30T05:13:31.523Z,4.34
2023-04-30T05:14:31.454Z,4.49
2023-04-30T05:15:31.491Z,4.73
2023-04-30T05:16:31.484Z,4.58
2023-04-30T05:17:31.518Z,4.55
2023-04-30T05:18:31.444Z,4.37
2023-04-30T05:19:31.459Z,4.22
2023-04-30T05:20:31.425Z,4.30
2023-04-30T05:21:31.429Z,4.26
2023-04-30T05:22:31.434Z,4.23
2023-04-30T05:23:31.433Z,4.23
2023-04-30T05:24:31.397Z,4.13
2023-04-30T05:25:31.401Z,3.86
2023-04-30T05:26:31.431Z,3.99
2023-04-30T05:27:31.410Z,4.10
2023-04-30T05:28:31.371Z,4.19
2023-04-30T05:29:31.364Z,4.34
2023-04-30T05:30:31.346Z,4.53
2023-04-30T05:31:31.411Z,4.78
2023-04-30T05:32:31.388Z,4.42
2023-04-30T05:33:31.348Z,4.20
2023-04-30T05:34:31.354Z,4.24
2023-04-30T05:35:31.365Z,4.12
2023-04-30T05:36:31.333Z,4.04
2023-04-30T05:37:31.320Z,4.16
2023-04-30T05:38:31.327Z,4.40
2023-04-30T05:39:31.352Z,4.90
2023-04-30T05:40:31.284Z,5.21
2023-04-30T05:41:31.297Z,5.51
2023-04-30T05:42:31.301Z,5.90
2023-04-30T05:43:31.297Z,5.98
2023-04-30T05:44:31.262Z,6.17
2023-04-30T05:45:31.337Z,6.11
2023-04-30T05:46:31.254Z,6.01
2023-04-30T05:47:31.328Z,5.56
2023-04-30T05:48:31.256Z,5.43
2023-04-30T05:49:31.956Z,5.57
2023-04-30T05:50:31.260Z,5.53
2023-04-30T05:51:31.280Z,5.11
2023-04-30T05:52:31.218Z,5.30
2023-04-30T05:53:31.233Z,5.54
2023-04-30T05:54:31.226Z,5.69
2023-04-30T05:55:31.208Z,5.65
2023-04-30T05:56:31.190Z,5.80
2023-04-30T05:57:31.196Z,6.05
2023-04-30T05:58:31.194Z,6.20
2023-04-30T05:59:31.180Z,6.44
2023-04-30T06:00:31.173Z,6.66
2023-04-30T06:01:31.194Z,6.95
2023-04-30T06:02:31.268Z,7.18
2023-04-30T06:03:31.163Z,7.60
2023-04-30T06:04:31.158Z,8.09
2023-04-30T06:05:31.182Z,8.71
2023-04-30T06:06:31.233Z,8.95
2023-04-30T06:07:31.160Z,9.03
2023-04-30T06:08:31.131Z,9.08
2023-04-30T06:09:31.151Z,8.95
2023-04-30T06:10:31.151Z,9.11
2023-04-30T06:11:31.134Z,8.94
2023-04-30T06:12:31.095Z,9.44
2023-04-30T06:13:31.115Z,8.95
2023-04-30T06:14:31.105Z,9.23
2023-04-30T06:15:31.105Z,9.36
2023-04-30T06:16:31.153Z,9.39
2023-04-30T06:17:31.166Z,9.46
2023-04-30T06:18:31.083Z,9.08
2023-04-30T06:19:31.085Z,9.32
2023-04-30T06:20:31.060Z,9.34
2023-04-30T06:21:31.087Z,9.13
2023-04-30T06:22:31.091Z,9.03
2023-04-30T06:23:31.079Z,9.41
2023-04-30T06:24:31.069Z,9.69
2023-04-30T06:25:31.056Z,9.73
2023-04-30T06:26:31.026Z,9.86
2023-04-30T06:27:31.035Z,9.56
2023-04-30T06:28:30.994Z,9.36
2023-04-30T06:29:31.029Z,9.37
2023-04-30T06:30:31.011Z,9.48
2023-04-30T06:31:31.061Z,9.59
2023-04-30T06:32:31.053Z,9.69
2023-04-30T06:33:30.997Z,10.23
2023-04-30T06:34:30.945Z,10.59
2023-04-30T06:35:30.998Z,10.76
2023-04-30T06:36:30.935Z,10.68
2023-04-30T06:37:32.989Z,10.49
2023-04-30T06:38:30.992Z,10.54
2023-04-30T06:39:30.977Z,10.68
2023-04-30T06:40:30.944Z,10.64
2023-04-30T06:41:30.928Z,10.54
2023-04-30T06:42:30.945Z,10.42
2023-04-30T06:43:30.900Z,10.71
2023-04-30T06:44:30.939Z,10.74
2023-04-30T06:45:30.916Z,11.36
2023-04-30T06:46:30.901Z,11.77
2023-04-30T06:47:30.897Z,12.29
2023-04-30T06:48:30.846Z,11.86
2023-04-30T06:49:30.884Z,11.07
2023-04-30T06:50:30.829Z,11.57
2023-04-30T06:51:30.843Z,11.81
2023-04-30T06:52:30.835Z,12.10
2023-04-30T06:53:30.846Z,12.25
2023-04-30T06:54:30.801Z,12.21
2023-04-30T06:55:30.804Z,12.35
2023-04-30T06:56:30.798Z,12.65
2023-04-30T06:57:30.828Z,12.91
2023-04-30T06:58:30.832Z,13.20
2023-04-30T06:59:30.825Z,13.37
2023-04-30T07:00:30.744Z,13.38
2023-04-30T07:01:30.812Z,13.39
2023-04-30T07:02:30.793Z,13.00
2023-04-30T07:03:30.835Z,13.04
2023-04-30T07:04:30.715Z,12.73
2023-04-30T07:05:30.765Z,12.91
2023-04-30T07:06:30.809Z,12.90
2023-04-30T07:07:30.697Z,13.22
2023-04-30T07:08:30.688Z,13.18
2023-04-30T07:09:30.699Z,12.85
2023-04-30T07:10:30.672Z,12.57
2023-04-30T07:11:30.683Z,12.35
2023-04-30T07:12:30.649Z,12.68
2023-04-30T07:13:30.652Z,12.68
2023-04-30T07:14:30.703Z,12.58
2023-04-30T07:15:30.639Z,12.21
2023-04-30T07:16:30.703Z,13.19
2023-04-30T07:17:30.660Z,13.31
2023-04-30T07:18:30.600Z,13.79
2023-04-30T07:19:30.618Z,14.03
2023-04-30T07:20:30.574Z,13.75
2023-04-30T07:21:30.605Z,13.57
2023-04-30T07:22:30.578Z,13.86
2023-04-30T07:23:30.764Z,13.87
2023-04-30T07:24:30.542Z,13.96
2023-04-30T07:25:30.541Z,14.25
2023-04-30T07:26:30.535Z,12.87
2023-04-30T07:27:30.547Z,12.91
2023-04-30T07:28:30.520Z,13.52
2023-04-30T07:29:30.532Z,14.58
2023-04-30T07:30:30.487Z,15.27
2023-04-30T07:31:30.558Z,14.92
2023-04-30T07:32:30.562Z,14.41
2023-04-30T07:33:30.487Z,14.20
2023-04-30T07:34:30.472Z,13.30
2023-04-30T07:35:30.477Z,12.86
2023-04-30T07:36:30.446Z,13.23
2023-04-30T07:37:30.447Z,13.90
2023-04-30T07:38:30.440Z,13.37
2023-04-30T07:39:30.433Z,13.16
2023-04-30T07:40:36.323Z,13.39
2023-04-30T07:41:31.416Z,14.14
2023-04-30T07:42:30.381Z,14.47
2023-04-30T07:43:31.838Z,14.69
2023-04-30T07:44:30.372Z,14.25
2023-04-30T07:45:30.391Z,13.87
2023-04-30T07:46:30.436Z,13.60
2023-04-30T07:47:30.375Z,13.89
2023-04-30T07:48:30.342Z,14.03
2023-04-30T07:49:30.371Z,14.23
2023-04-30T07:50:30.317Z,14.35
2023-04-30T07:51:30.355Z,13.79
2023-04-30T07:52:30.308Z,13.83
2023-04-30T07:53:30.320Z,13.83
2023-04-30T07:54:30.291Z,14.47
2023-04-30T07:55:30.356Z,14.88
2023-04-30T07:56:30.272Z,14.32
2023-04-30T07:57:30.286Z,14.15
2023-04-30T07:58:30.259Z,13.89
2023-04-30T07:59:30.273Z,13.86
2023-04-30T08:00:30.242Z,13.87
2023-04-30T08:01:30.267Z,13.81
2023-04-30T08:02:30.293Z,13.95
2023-04-30T08:03:30.334Z,13.95
2023-04-30T08:04:30.364Z,14.40
2023-04-30T08:05:30.246Z,15.62
2023-04-30T08:06:30.247Z,16.20
2023-04-30T08:07:30.206Z,15.57
2023-04-30T08:08:30.170Z,14.94
2023-04-30T08:09:30.202Z,14.97
2023-04-30T08:10:30.192Z,14.35
2023-04-30T08:11:30.191Z,13.92
2023-04-30T08:12:30.172Z,14.43
2023-04-30T08:13:30.183Z,15.24
2023-04-30T08:14:30.146Z,15.22
2023-04-30T08:15:30.728Z,15.61
2023-04-30T08:16:30.211Z,15.62
2023-04-30T08:17:30.169Z,14.92
2023-04-30T08:18:30.124Z,15.35
2023-04-30T08:19:30.121Z,15.21
2023-04-30T08:20:30.123Z,14.99
2023-04-30T08:21:30.143Z,14.96
2023-04-30T08:22:30.093Z,15.31
2023-04-30T08:23:30.090Z,15.70
2023-04-30T08:24:30.065Z,16.15
2023-04-30T08:25:30.077Z,15.94
2023-04-30T08:26:30.083Z,15.21
2023-04-30T08:27:30.080Z,14.84
2023-04-30T08:28:30.058Z,15.58
2023-04-30T08:29:30.040Z,15.68
2023-04-30T08:30:30.049Z,15.76
2023-04-30T08:31:30.096Z,16.23
2023-04-30T08:32:30.056Z,16.96
2023-04-30T08:33:30.046Z,17.01
2023-04-30T08:34:29.982Z,17.05
2023-04-30T08:35:30.133Z,16.42
2023-04-30T08:36:29.982Z,16.42
2023-04-30T08:37:30.009Z,16.41
2023-04-30T08:38:29.994Z,15.91
2023-04-30T08:39:30.015Z,14.36
2023-04-30T08:40:49.256Z,14.45
2023-04-30T08:41:30.951Z,14.20
2023-04-30T08:42:29.953Z,14.36
2023-04-30T08:43:29.949Z,15.31
2023-04-30T08:44:29.924Z,16.33
2023-04-30T08:45:29.948Z,17.26
2023-04-30T08:46:29.964Z,17.14
2023-04-30T08:47:29.928Z,16.64
2023-04-30T08:48:29.929Z,16.72
2023-04-30T08:49:29.896Z,16.76
2023-04-30T08:50:29.883Z,16.69
2023-04-30T08:51:29.895Z,16.53
2023-04-30T08:52:29.888Z,16.35
2023-04-30T08:53:30.040Z,16.54
2023-04-30T08:54:29.871Z,15.91
2023-04-30T08:55:29.902Z,15.57
2023-04-30T08:56:29.836Z,15.62
2023-04-30T08:57:29.845Z,15.73
2023-04-30T08:58:29.845Z,15.64
2023-04-30T08:59:29.865Z,15.58
2023-04-30T09:00:29.815Z,16.21
2023-04-30T09:01:29.852Z,16.47
2023-04-30T09:02:29.874Z,16.23
2023-04-30T09:03:29.873Z,15.92
2023-04-30T09:04:29.803Z,16.16
2023-04-30T09:05:29.796Z,16.12
2023-04-30T09:06:29.815Z,16.50
2023-04-30T09:07:29.783Z,17.02
2023-04-30T09:08:29.737Z,17.04
2023-04-30T09:09:29.746Z,17.05
2023-04-30T09:10:29.729Z,16.65
2023-04-30T09:11:29.764Z,16.16
2023-04-30T09:12:29.725Z,16.12
2023-04-30T09:13:29.715Z,16.24
2023-04-30T09:14:29.699Z,16.76
2023-04-30T09:15:29.709Z,16.71
2023-04-30T09:16:29.751Z,16.58
2023-04-30T09:17:29.738Z,16.50
2023-04-30T09:18:29.671Z,16.13
2023-04-30T09:19:29.697Z,16.60
2023-04-30T09:20:29.663Z,17.46
2023-04-30T09:21:29.671Z,16.60
2023-04-30T09:22:29.640Z,16.69
2023-04-30T09:23:30.075Z,16.42
2023-04-30T09:24:29.624Z,16.84
2023-04-30T09:25:29.679Z,16.71
2023-04-30T09:26:29.629Z,16.50
2023-04-30T09:27:29.616Z,16.13
2023-04-30T09:28:29.616Z,16.29
2023-04-30T09:29:29.606Z,16.50
2023-04-30T09:30:29.588Z,16.17
2023-04-30T09:31:29.622Z,16.20
2023-04-30T09:32:29.635Z,15.68
2023-04-30T09:33:29.571Z,15.52
2023-04-30T09:34:29.562Z,15.77
2023-04-30T09:35:29.565Z,15.70
2023-04-30T09:36:29.534Z,16.47
2023-04-30T09:37:29.579Z,16.58
2023-04-30T09:38:29.551Z,16.35
2023-04-30T09:39:29.547Z,15.55
2023-04-30T09:40:29.515Z,15.76
2023-04-30T09:41:29.566Z,16.28
2023-04-30T09:42:29.514Z,16.49
2023-04-30T09:43:29.575Z,16.09
2023-04-30T09:44:29.500Z,15.03
2023-04-30T09:45:30.404Z,15.25
2023-04-30T09:46:29.520Z,15.47
2023-04-30T09:47:29.516Z,15.61
2023-04-30T09:48:29.559Z,15.97
2023-04-30T09:49:29.471Z,16.20
2023-04-30T09:50:29.439Z,16.24
2023-04-30T09:51:29.464Z,16.53
2023-04-30T09:52:29.442Z,16.78
2023-04-30T09:53:29.434Z,17.09
2023-04-30T09:54:29.474Z,16.51
2023-04-30T09:55:29.443Z,16.69
2023-04-30T09:56:29.380Z,16.64
2023-04-30T09:57:29.411Z,16.20
2023-04-30T09:58:29.384Z,16.61
2023-04-30T09:59:29.386Z,16.58
2023-04-30T10:00:29.426Z,16.99
2023-04-30T10:01:29.466Z,17.11
2023-04-30T10:02:29.359Z,17.08
2023-04-30T10:03:29.442Z,17.11
2023-04-30T10:04:29.363Z,17.30
2023-04-30T10:05:29.382Z,17.72
2023-04-30T10:06:29.358Z,17.64
2023-04-30T10:07:29.312Z,17.49
2023-04-30T10:08:29.316Z,16.75
2023-04-30T10:09:29.308Z,16.86
2023-04-30T10:10:29.303Z,17.44
2023-04-30T10:11:29.320Z,17.12
2023-04-30T10:12:29.300Z,17.22
2023-04-30T10:13:29.282Z,17.23
2023-04-30T10:14:29.256Z,17.48
2023-04-30T10:15:29.286Z,17.56
2023-04-30T10:16:29.281Z,17.44
2023-04-30T10:17:29.244Z,17.41
2023-04-30T10:18:29.231Z,16.86
2023-04-30T10:19:29.232Z,16.38
2023-04-30T10:20:29.186Z,16.15
2023-04-30T10:21:29.230Z,16.60
2023-04-30T10:22:29.227Z,16.99
2023-04-30T10:23:29.206Z,16.64
2023-04-30T10:24:29.178Z,16.74
2023-04-30T10:25:29.180Z,17.08
2023-04-30T10:26:29.193Z,16.71
2023-04-30T10:27:29.167Z,16.91
2023-04-30T10:28:29.160Z,17.27
2023-04-30T10:29:29.137Z,17.86
2023-04-30T10:30:29.132Z,18.11
2023-04-30T10:31:29.220Z,17.48
2023-04-30T10:32:29.247Z,17.22
2023-04-30T10:33:29.114Z,17.54
2023-04-30T10:34:29.117Z,17.49
2023-04-30T10:35:29.142Z,17.57
2023-04-30T10:36:29.100Z,17.48
2023-04-30T10:37:29.090Z,16.75
2023-04-30T10:38:29.072Z,16.66
2023-04-30T10:39:29.087Z,17.02
2023-04-30T10:40:29.053Z,17.29
2023-04-30T10:41:29.068Z,17.27
2023-04-30T10:42:29.028Z,16.58
2023-04-30T10:43:29.037Z,16.99
2023-04-30T10:44:29.051Z,16.68
2023-04-30T10:45:29.041Z,16.99
2023-04-30T10:46:29.114Z,17.05
2023-04-30T10:47:29.080Z,17.22
2023-04-30T10:48:29.011Z,18.01
2023-04-30T10:49:29.013Z,18.45
2023-04-30T10:50:29.039Z,18.11
2023-04-30T10:51:28.989Z,17.87
2023-04-30T10:52:28.974Z,17.48
2023-04-30T10:53:28.989Z,17.54
2023-04-30T10:54:28.942Z,17.76
2023-04-30T10:55:28.954Z,17.56
2023-04-30T10:56:28.961Z,17.52
2023-04-30T10:57:28.935Z,17.41
2023-04-30T10:58:28.916Z,17.22
2023-04-30T10:59:28.918Z,17.59
2023-04-30T11:00:28.902Z,17.72
2023-04-30T11:01:28.975Z,17.06
2023-04-30T11:02:28.934Z,17.06
2023-04-30T11:03:28.906Z,17.20
2023-04-30T11:04:28.907Z,17.08
2023-04-30T11:05:28.874Z,17.06
2023-04-30T11:06:28.895Z,17.15
2023-04-30T11:07:28.870Z,17.15
2023-04-30T11:08:28.848Z,17.68
2023-04-30T11:09:28.854Z,17.82
2023-04-30T11:10:28.837Z,18.10
2023-04-30T11:11:28.859Z,18.56
2023-04-30T11:12:28.869Z,18.95
2023-04-30T11:13:28.803Z,19.19
2023-04-30T11:14:28.790Z,19.15
2023-04-30T11:15:28.788Z,18.41
2023-04-30T11:16:28.874Z,17.49
2023-04-30T11:17:28.831Z,17.38
2023-04-30T11:18:28.770Z,17.38
2023-04-30T11:19:28.773Z,17.11
2023-04-30T11:20:28.750Z,17.42
2023-04-30T11:21:28.787Z,17.33
2023-04-30T11:22:28.756Z,17.65
2023-04-30T11:23:39.244Z,18.10
2023-04-30T11:24:29.708Z,18.31
2023-04-30T11:25:28.743Z,18.03
2023-04-30T11:26:28.714Z,17.20
2023-04-30T11:27:28.750Z,17.11
2023-04-30T11:28:28.684Z,17.60
2023-04-30T11:29:28.851Z,17.12
2023-04-30T11:30:28.670Z,17.04
2023-04-30T11:31:28.732Z,17.52
2023-04-30T11:32:28.744Z,17.80
2023-04-30T11:33:28.790Z,17.90
2023-04-30T11:34:28.634Z,17.79
2023-04-30T11:35:28.673Z,17.68
2023-04-30T11:36:28.623Z,17.38
2023-04-30T11:37:28.658Z,16.84
2023-04-30T11:38:28.625Z,16.96
2023-04-30T11:39:28.630Z,16.78
2023-04-30T11:40:28.595Z,17.05
2023-04-30T11:41:28.594Z,17.63
2023-04-30T11:42:28.584Z,17.97
2023-04-30T11:43:28.609Z,17.15
2023-04-30T11:44:28.578Z,17.14
2023-04-30T11:45:28.580Z,16.99
2023-04-30T11:46:28.586Z,16.50
2023-04-30T11:47:28.590Z,17.16
2023-04-30T11:48:28.533Z,17.64
2023-04-30T11:49:28.573Z,17.54
2023-04-30T11:50:28.526Z,17.70
2023-04-30T11:51:28.578Z,17.74
2023-04-30T11:52:28.514Z,17.86
2023-04-30T11:53:28.558Z,18.16
2023-04-30T11:54:28.522Z,18.16
2023-04-30T11:55:28.518Z,17.76
2023-04-30T11:56:28.474Z,17.72
2023-04-30T11:57:28.505Z,17.86
2023-04-30T11:58:28.481Z,17.71
2023-04-30T11:59:28.507Z,17.90
2023-04-30T12:00:28.455Z,18.29
2023-04-30T12:01:28.468Z,17.94
2023-04-30T12:02:28.561Z,17.98
2023-04-30T12:03:28.485Z,17.83
2023-04-30T12:04:28.555Z,17.76
2023-04-30T12:05:28.465Z,17.80
2023-04-30T12:06:28.484Z,17.79
2023-04-30T12:07:28.446Z,17.68
2023-04-30T12:08:28.403Z,17.87
2023-04-30T12:09:28.429Z,18.16
2023-04-30T12:10:28.396Z,17.82
2023-04-30T12:11:28.432Z,17.52
2023-04-30T12:12:28.383Z,17.76
2023-04-30T12:13:28.386Z,18.07
2023-04-30T12:14:28.356Z,18.10
2023-04-30T12:15:28.392Z,17.52
2023-04-30T12:16:28.397Z,17.12
2023-04-30T12:17:28.400Z,17.63
2023-04-30T12:18:28.328Z,17.70
2023-04-30T12:19:28.330Z,18.10
2023-04-30T12:20:28.412Z,18.26
2023-04-30T12:21:28.369Z,18.22
2023-04-30T12:22:28.285Z,18.26
2023-04-30T12:23:28.303Z,18.34
2023-04-30T12:24:28.271Z,18.47
2023-04-30T12:25:28.329Z,18.37
2023-04-30T12:26:28.306Z,18.18
2023-04-30T12:27:28.268Z,18.37
2023-04-30T12:28:28.268Z,18.86
2023-04-30T12:29:28.274Z,18.96
2023-04-30T12:30:28.238Z,18.73
2023-04-30T12:31:28.267Z,18.45
2023-04-30T12:32:28.324Z,18.18
2023-04-30T12:33:28.234Z,17.74
2023-04-30T12:34:28.197Z,17.67
2023-04-30T12:35:28.222Z,17.85
2023-04-30T12:36:28.187Z,17.87
2023-04-30T12:37:28.225Z,17.86
2023-04-30T12:38:28.173Z,17.63
2023-04-30T12:39:28.184Z,17.12
2023-04-30T12:40:28.168Z,17.64
2023-04-30T12:41:28.198Z,17.80
2023-04-30T12:42:28.157Z,17.57
2023-04-30T12:43:28.146Z,17.74
2023-04-30T12:44:28.148Z,18.00
2023-04-30T12:45:28.141Z,18.13
2023-04-30T12:46:28.199Z,18.03
2023-04-30T12:47:28.195Z,18.43
2023-04-30T12:48:28.124Z,18.71
2023-04-30T12:49:28.139Z,18.05
2023-04-30T12:50:28.076Z,18.44
2023-04-30T12:51:28.098Z,18.53
2023-04-30T12:52:28.095Z,17.94
2023-04-30T12:53:28.099Z,17.83
2023-04-30T12:54:28.046Z,17.36
2023-04-30T12:55:28.080Z,17.54
2023-04-30T12:56:28.045Z,17.31
2023-04-30T12:57:28.040Z,17.15
2023-04-30T12:58:28.045Z,16.99
2023-04-30T12:59:28.033Z,16.99
2023-04-30T13:00:28.003Z,17.46
2023-04-30T13:01:28.075Z,17.46
2023-04-30T13:02:28.146Z,17.70
2023-04-30T13:03:28.106Z,18.04
2023-04-30T13:04:27.976Z,18.38
2023-04-30T13:05:27.974Z,18.49